Terminal Aerodrome Forecast
Issued by NWS

Home | Current Version | Previous Version | Text Only | Print | Product List | Glossary Off
Versions: 1 2 3 4 5 6 7 8 9 10 11 12 13 14 15 16 17 18 19

327
FTUS43 KTOP 060534
TAFFOE
TAF
KFOE 060534Z 0606/0706 31004KT P6SM SCT022 BKN080
     FM061700 26009KT P6SM BKN250
     FM070000 20007KT P6SM SCT250=

USA.gov is the U.S. government's official web portal to all federal, state and local government web resources and services.